Time,TemperatureF,DewpointF,PressureIn,WindDirection,WindDirectionDegrees,WindSpeedMPH,WindSpeedGustMPH,Humidity,HourlyPrecipIn,Conditions,Clouds,dailyrainin,SoftwareType,DateUTC
2013-03-15 00:00:00,29.8,19.1,30.53,North,0,0.0,0.0,64,0.00,,,0.00,WUHU21623XXSP,2013-03-15 04:00:00,
2013-03-15 00:02:00,29.8,19.1,30.53,East,90,0.0,0.0,64,0.00,,,0.00,WUHU21623XXSP,2013-03-15 04:02:00,
2013-03-15 00:07:00,29.7,18.9,30.53,ESE,112,0.0,0.0,64,0.00,,,0.00,WUHU21623XXSP,2013-03-15 04:07:00,
2013-03-15 00:12:00,29.7,18.6,30.53,East,90,0.0,0.0,63,0.00,,,0.00,WUHU21623XXSP,2013-03-15 04:12:00,
2013-03-15 00:17:00,29.7,18.6,30.53,ENE,67,0.0,0.0,63,0.00,,,0.00,WUHU21623XXSP,2013-03-15 04:17:00,
2013-03-15 00:22:00,29.7,18.6,30.53,NNE,22,3.4,3.4,63,0.00,,,0.00,WUHU21623XXSP,2013-03-15 04:22:00,
2013-03-15 00:27:00,29.7,18.6,30.53,East,90,0.0,3.4,63,0.00,,,0.00,WUHU21623XXSP,2013-03-15 04:27:00,
2013-03-15 00:32:00,29.8,18.7,30.53,NNE,22,0.0,0.0,63,0.00,,,0.00,WUHU21623XXSP,2013-03-15 04:32:00,
2013-03-15 00:37:00,29.8,18.7,30.53,SSW,202,0.0,0.0,63,0.00,,,0.00,WUHU21623XXSP,2013-03-15 04:37:00,
2013-03-15 00:42:00,29.8,18.7,30.53,NE,45,0.0,0.0,63,0.00,,,0.00,WUHU21623XXSP,2013-03-15 04:42:00,
2013-03-15 00:47:00,30.0,18.9,30.53,ENE,67,0.0,2.0,63,0.00,,,0.00,WUHU21623XXSP,2013-03-15 04:47:00,
2013-03-15 00:52:00,30.0,18.9,30.53,East,90,2.2,2.2,63,0.00,,,0.00,WUHU21623XXSP,2013-03-15 04:52:00,
2013-03-15 00:57:00,30.0,19.2,30.52,ENE,67,0.0,2.2,64,0.00,,,0.00,WUHU21623XXSP,2013-03-15 04:57:00,
2013-03-15 01:02:00,30.0,19.2,30.53,NE,45,0.0,0.0,64,0.00,,,0.00,WUHU21623XXSP,2013-03-15 05:02:00,
2013-03-15 01:07:00,30.0,19.2,30.52,East,90,0.0,0.0,64,0.00,,,0.00,WUHU21623XXSP,2013-03-15 05:07:00,
2013-03-15 01:12:00,30.0,19.2,30.52,East,90,0.0,0.0,65,0.00,,,0.00,WUHU21623XXSP,2013-03-15 05:12:00,
2013-03-15 01:17:00,30.2,19.8,30.52,SSE,157,0.0,2.0,65,0.00,,,0.00,WUHU21623XXSP,2013-03-15 05:17:00,
2013-03-15 01:22:00,30.2,19.8,30.52,SE,135,0.0,2.0,65,0.00,,,0.00,WUHU21623XXSP,2013-03-15 05:22:00,
2013-03-15 01:27:00,30.2,20.1,30.52,NNE,22,0.0,0.0,66,0.00,,,0.00,WUHU21623XXSP,2013-03-15 05:27:00,
2013-03-15 01:32:00,30.4,20.3,30.51,East,90,0.0,3.8,66,0.00,,,0.00,WUHU21623XXSP,2013-03-15 05:32:00,
2013-03-15 01:37:00,30.4,20.3,30.51,East,90,0.0,3.8,66,0.00,,,0.00,WUHU21623XXSP,2013-03-15 05:37:00,
2013-03-15 01:42:00,30.6,20.5,30.51,SSW,202,0.0,0.7,66,0.00,,,0.00,WUHU21623XXSP,2013-03-15 05:42:00,
2013-03-15 01:47:00,30.6,20.5,30.50,North,0,2.0,2.0,66,0.00,,,0.00,WUHU21623XXSP,2013-03-15 05:47:00,
2013-03-15 01:52:00,30.7,20.7,30.50,SE,135,0.0,2.0,66,0.00,,,0.00,WUHU21623XXSP,2013-03-15 05:52:00,
2013-03-15 01:57:00,30.7,21.0,30.50,East,90,0.0,2.9,67,0.00,,,0.00,WUHU21623XXSP,2013-03-15 05:57:00,
2013-03-15 02:02:00,30.7,21.0,30.50,NNE,22,0.0,2.9,67,0.00,,,0.00,WUHU21623XXSP,2013-03-15 06:02:00,
2013-03-15 02:07:00,30.7,21.0,30.50,ESE,112,0.0,0.0,67,0.00,,,0.00,WUHU21623XXSP,2013-03-15 06:07:00,
2013-03-15 02:12:00,30.9,21.6,30.49,West,270,0.0,0.0,68,0.00,,,0.00,WUHU21623XXSP,2013-03-15 06:12:00,
2013-03-15 02:17:00,30.9,21.6,30.49,ESE,112,0.0,0.0,68,0.00,,,0.00,WUHU21623XXSP,2013-03-15 06:17:00,
2013-03-15 02:22:00,30.9,21.6,30.50,NE,45,0.0,0.9,68,0.00,,,0.00,WUHU21623XXSP,2013-03-15 06:22:00,
2013-03-15 02:28:00,31.1,22.1,30.49,ENE,67,0.0,4.7,69,0.00,,,0.00,WUHU21623XXSP,2013-03-15 06:28:00,
2013-03-15 02:33:00,31.1,22.1,30.49,ENE,67,0.0,4.7,69,0.00,,,0.00,WUHU21623XXSP,2013-03-15 06:33:00,
2013-03-15 02:38:00,31.1,22.1,30.49,ESE,112,0.0,0.0,69,0.00,,,0.00,WUHU21623XXSP,2013-03-15 06:38:00,
2013-03-15 02:43:00,31.3,22.3,30.48,ESE,112,0.0,0.0,69,0.00,,,0.00,WUHU21623XXSP,2013-03-15 06:43:00,
2013-03-15 02:48:00,31.3,22.3,30.48,ESE,112,0.0,0.0,69,0.00,,,0.00,WUHU21623XXSP,2013-03-15 06:48:00,
2013-03-15 02:53:00,31.3,22.6,30.48,East,90,0.0,0.0,70,0.00,,,0.00,WUHU21623XXSP,2013-03-15 06:53:00,
2013-03-15 02:58:00,31.3,22.6,30.48,ENE,67,0.0,0.0,70,0.00,,,0.00,WUHU21623XXSP,2013-03-15 06:58:00,
2013-03-15 03:03:00,31.3,22.6,30.47,East,90,0.0,0.0,70,0.00,,,0.00,WUHU21623XXSP,2013-03-15 07:03:00,
2013-03-15 03:08:00,31.1,22.5,30.47,East,90,0.0,0.0,70,0.00,,,0.00,WUHU21623XXSP,2013-03-15 07:08:00,
2013-03-15 03:13:00,30.9,22.6,30.47,ENE,67,0.0,0.0,71,0.00,,,0.00,WUHU21623XXSP,2013-03-15 07:13:00,
2013-03-15 03:18:00,30.9,22.6,30.47,East,90,2.0,2.0,71,0.00,,,0.00,WUHU21623XXSP,2013-03-15 07:18:00,
2013-03-15 03:23:00,31.1,22.8,30.46,East,90,2.0,3.6,71,0.00,,,0.00,WUHU21623XXSP,2013-03-15 07:23:00,
2013-03-15 03:28:00,31.1,23.1,30.46,North,0,0.0,3.6,72,0.00,,,0.00,WUHU21623XXSP,2013-03-15 07:28:00,
2013-03-15 03:33:00,31.1,23.1,30.45,East,90,0.0,0.0,72,0.00,,,0.00,WUHU21623XXSP,2013-03-15 07:33:00,
2013-03-15 03:39:00,31.3,23.3,30.45,East,90,0.0,0.0,72,0.00,,,0.00,WUHU21623XXSP,2013-03-15 07:39:00,
2013-03-15 03:44:00,31.3,23.6,30.45,ESE,112,0.0,0.0,73,0.00,,,0.00,WUHU21623XXSP,2013-03-15 07:44:00,
2013-03-15 03:49:00,31.3,23.6,30.45,East,90,0.0,0.0,73,0.00,,,0.00,WUHU21623XXSP,2013-03-15 07:49:00,
2013-03-15 03:54:00,31.3,23.6,30.44,ENE,67,0.0,0.0,73,0.00,,,0.00,WUHU21623XXSP,2013-03-15 07:54:00,
2013-03-15 03:59:00,31.3,23.6,30.44,North,0,0.0,0.0,73,0.00,,,0.00,WUHU21623XXSP,2013-03-15 07:59:00,
2013-03-15 04:04:00,31.5,24.1,30.43,East,90,0.0,0.0,74,0.00,,,0.00,WUHU21623XXSP,2013-03-15 08:04:00,
2013-03-15 04:09:00,31.6,24.6,30.43,North,0,0.0,0.0,75,0.00,,,0.00,WUHU21623XXSP,2013-03-15 08:09:00,
2013-03-15 04:14:00,31.6,24.6,30.43,NE,45,0.0,0.0,75,0.00,,,0.00,WUHU21623XXSP,2013-03-15 08:14:00,
2013-03-15 04:19:00,31.8,24.8,30.43,SE,135,0.0,0.0,75,0.00,,,0.00,WUHU21623XXSP,2013-03-15 08:19:00,
2013-03-15 04:24:00,31.8,24.8,30.42,ESE,112,0.0,0.0,75,0.00,,,0.00,WUHU21623XXSP,2013-03-15 08:24:00,
2013-03-15 04:29:00,31.8,24.8,30.42,NNE,22,4.0,4.0,75,0.00,,,0.00,WUHU21623XXSP,2013-03-15 08:29:00,
2013-03-15 04:34:00,32.2,25.5,30.41,East,90,0.0,4.0,76,0.00,,,0.00,WUHU21623XXSP,2013-03-15 08:34:00,
2013-03-15 04:39:00,32.2,25.5,30.41,ESE,112,1.6,2.0,76,0.00,,,0.00,WUHU21623XXSP,2013-03-15 08:39:00,
2013-03-15 04:44:00,32.2,25.5,30.40,NNE,22,3.8,6.5,76,0.00,,,0.00,WUHU21623XXSP,2013-03-15 08:44:00,
2013-03-15 04:49:00,32.4,25.6,30.41,East,90,0.0,6.5,76,0.00,,,0.00,WUHU21623XXSP,2013-03-15 08:49:00,
2013-03-15 04:54:00,32.4,26.0,30.40,ESE,112,2.9,9.2,77,0.00,,,0.00,WUHU21623XXSP,2013-03-15 08:54:00,
2013-03-15 04:59:00,32.5,25.8,30.40,ENE,67,5.1,9.2,76,0.00,,,0.00,WUHU21623XXSP,2013-03-15 08:59:00,
2013-03-15 05:04:00,32.5,26.1,30.40,East,90,0.0,5.1,77,0.00,,,0.00,WUHU21623XXSP,2013-03-15 09:04:00,
2013-03-15 05:09:00,32.5,26.1,30.40,East,90,4.3,4.7,77,0.00,,,0.00,WUHU21623XXSP,2013-03-15 09:09:00,
2013-03-15 05:14:00,32.7,26.3,30.40,South,180,0.0,4.3,77,0.00,,,0.00,WUHU21623XXSP,2013-03-15 09:14:00,
2013-03-15 05:19:00,32.7,26.3,30.40,WSW,247,2.2,3.1,77,0.00,,,0.00,WUHU21623XXSP,2013-03-15 09:19:00,
2013-03-15 05:24:00,32.7,26.3,30.40,ESE,112,3.8,3.8,77,0.00,,,0.00,WUHU21623XXSP,2013-03-15 09:24:00,
2013-03-15 05:29:00,32.7,26.3,30.40,East,90,2.9,3.8,77,0.00,,,0.00,WUHU21623XXSP,2013-03-15 09:29:00,
2013-03-15 05:34:00,32.7,26.3,30.39,ESE,112,3.6,3.6,77,0.00,,,0.00,WUHU21623XXSP,2013-03-15 09:34:00,
2013-03-15 05:39:00,32.7,26.3,30.40,ESE,112,4.5,4.5,77,0.00,,,0.00,WUHU21623XXSP,2013-03-15 09:39:00,
2013-03-15 05:44:00,32.7,26.3,30.40,ENE,67,6.7,6.7,77,0.00,,,0.00,WUHU21623XXSP,2013-03-15 09:44:00,
2013-03-15 05:49:00,32.7,26.3,30.39,NE,45,0.0,6.7,77,0.00,,,0.00,WUHU21623XXSP,2013-03-15 09:49:00,
2013-03-15 05:54:00,32.7,26.3,30.39,East,90,0.0,3.1,77,0.00,,,0.00,WUHU21623XXSP,2013-03-15 09:54:00,
2013-03-15 05:59:00,32.9,26.4,30.38,ESE,112,0.0,2.7,77,0.00,,,0.00,WUHU21623XXSP,2013-03-15 09:59:00,
2013-03-15 06:04:00,32.9,26.4,30.39,SE,135,1.8,1.8,77,0.00,,,0.00,WUHU21623XXSP,2013-03-15 10:04:00,
2013-03-15 06:09:00,32.9,26.4,30.39,East,90,2.2,2.2,77,0.00,,,0.00,WUHU21623XXSP,2013-03-15 10:09:00,
2013-03-15 06:14:00,32.9,26.4,30.39,East,90,2.2,2.2,77,0.00,,,0.00,WUHU21623XXSP,2013-03-15 10:14:00,
2013-03-15 06:19:00,32.9,26.4,30.38,East,90,5.4,5.4,77,0.00,,,0.00,WUHU21623XXSP,2013-03-15 10:19:00,
2013-03-15 06:24:00,32.9,26.8,30.38,SSW,202,1.1,5.4,78,0.00,,,0.00,WUHU21623XXSP,2013-03-15 10:24:00,
2013-03-15 06:29:00,32.9,26.4,30.38,ESE,112,0.0,5.4,77,0.00,,,0.00,WUHU21623XXSP,2013-03-15 10:29:00,
2013-03-15 06:34:00,32.9,26.8,30.38,ESE,112,4.9,4.9,78,0.00,,,0.00,WUHU21623XXSP,2013-03-15 10:34:00,
2013-03-15 06:39:00,32.9,26.8,30.38,East,90,1.8,4.9,78,0.00,,,0.00,WUHU21623XXSP,2013-03-15 10:39:00,
2013-03-15 06:44:00,32.9,26.8,30.37,ESE,112,0.0,1.8,78,0.00,,,0.00,WUHU21623XXSP,2013-03-15 10:44:00,
2013-03-15 06:49:00,32.9,26.8,30.37,East,90,1.8,1.8,78,0.00,,,0.00,WUHU21623XXSP,2013-03-15 10:49:00,
2013-03-15 06:54:00,32.9,26.8,30.37,East,90,1.8,1.8,78,0.00,,,0.00,WUHU21623XXSP,2013-03-15 10:54:00,
2013-03-15 06:59:00,32.9,26.8,30.37,ESE,112,0.0,1.8,78,0.00,,,0.00,WUHU21623XXSP,2013-03-15 10:59:00,
2013-03-15 07:04:00,32.9,26.8,30.37,ENE,67,0.0,0.0,78,0.00,,,0.00,WUHU21623XXSP,2013-03-15 11:04:00,
2013-03-15 07:09:00,33.1,26.9,30.36,East,90,0.0,1.3,78,0.00,,,0.00,WUHU21623XXSP,2013-03-15 11:09:00,
2013-03-15 07:14:00,33.1,26.9,30.37,NE,45,0.0,1.3,78,0.00,,,0.00,WUHU21623XXSP,2013-03-15 11:14:00,
2013-03-15 07:19:00,33.1,26.9,30.36,ENE,67,1.8,1.8,78,0.00,,,0.00,WUHU21623XXSP,2013-03-15 11:19:00,
2013-03-15 07:24:00,33.1,26.9,30.36,ENE,67,0.0,1.8,78,0.00,,,0.00,WUHU21623XXSP,2013-03-15 11:24:00,
2013-03-15 07:29:00,33.1,26.9,30.37,ESE,112,0.0,1.8,78,0.00,,,0.00,WUHU21623XXSP,2013-03-15 11:29:00,
2013-03-15 07:34:00,33.1,26.9,30.37,ESE,112,0.0,0.0,78,0.00,,,0.00,WUHU21623XXSP,2013-03-15 11:34:00,
2013-03-15 07:39:00,33.1,26.9,30.37,ENE,67,2.0,2.0,78,0.00,,,0.00,WUHU21623XXSP,2013-03-15 11:39:00,
2013-03-15 07:44:00,33.1,26.9,30.37,East,90,0.0,4.0,78,0.00,,,0.00,WUHU21623XXSP,2013-03-15 11:44:00,
2013-03-15 07:49:00,33.1,26.9,30.36,ENE,67,0.0,4.0,78,0.00,,,0.00,WUHU21623XXSP,2013-03-15 11:49:00,
2013-03-15 07:54:00,33.3,27.1,30.37,East,90,0.0,3.1,78,0.00,,,0.00,WUHU21623XXSP,2013-03-15 11:54:00,
2013-03-15 08:00:00,33.3,27.1,30.37,North,0,4.7,4.7,78,0.00,,,0.00,WUHU21623XXSP,2013-03-15 12:00:00,
2013-03-15 08:05:00,33.3,27.1,30.37,SW,225,0.0,4.7,78,0.00,,,0.00,WUHU21623XXSP,2013-03-15 12:05:00,
2013-03-15 08:10:00,33.4,27.6,30.37,ESE,112,0.0,0.0,79,0.00,,,0.00,WUHU21623XXSP,2013-03-15 12:10:00,
2013-03-15 08:15:00,33.4,27.6,30.37,SE,135,0.0,0.7,79,0.00,,,0.00,WUHU21623XXSP,2013-03-15 12:15:00,
2013-03-15 08:20:00,33.4,27.6,30.37,NE,45,0.0,0.7,79,0.00,,,0.00,WUHU21623XXSP,2013-03-15 12:20:00,
2013-03-15 08:25:00,33.4,27.6,30.37,ESE,112,1.3,1.3,79,0.00,,,0.00,WUHU21623XXSP,2013-03-15 12:25:00,
2013-03-15 08:30:00,33.6,27.7,30.37,East,90,2.0,2.0,79,0.00,,,0.00,WUHU21623XXSP,2013-03-15 12:30:00,
2013-03-15 08:35:00,33.6,27.6,30.38,NNE,22,0.0,2.0,79,0.00,,,0.00,WUHU21623XXSP,2013-03-15 12:35:00,
2013-03-15 08:40:00,33.6,27.7,30.37,SSE,157,0.0,0.0,79,0.00,,,0.00,WUHU21623XXSP,2013-03-15 12:40:00,
2013-03-15 08:45:00,33.6,27.7,30.37,SE,135,0.0,1.1,79,0.00,,,0.00,WUHU21623XXSP,2013-03-15 12:45:00,
2013-03-15 08:50:00,33.6,27.7,30.38,ESE,112,0.0,2.0,79,0.00,,,0.00,WUHU21623XXSP,2013-03-15 12:50:00,
2013-03-15 08:55:00,33.8,27.6,30.37,North,0,0.0,2.0,78,0.00,,,0.00,WUHU21623XXSP,2013-03-15 12:55:00,
2013-03-15 09:00:00,34.0,27.8,30.37,NNE,22,0.0,0.0,78,0.00,,,0.00,WUHU21623XXSP,2013-03-15 13:00:00,
2013-03-15 09:05:00,34.0,27.8,30.37,East,90,1.6,1.6,78,0.00,,,0.00,WUHU21623XXSP,2013-03-15 13:05:00,
2013-03-15 09:10:00,34.2,27.9,30.37,South,180,1.6,1.6,78,0.00,,,0.00,WUHU21623XXSP,2013-03-15 13:10:00,
2013-03-15 09:15:00,34.3,28.1,30.37,ENE,67,0.0,1.6,78,0.00,,,0.00,WUHU21623XXSP,2013-03-15 13:15:00,
2013-03-15 09:20:00,34.3,28.1,30.37,SE,135,0.0,0.0,78,0.00,,,0.00,WUHU21623XXSP,2013-03-15 13:20:00,
2013-03-15 09:25:00,34.3,28.1,30.37,ESE,112,0.0,0.9,78,0.00,,,0.00,WUHU21623XXSP,2013-03-15 13:25:00,
2013-03-15 09:30:00,34.3,28.1,30.37,ESE,112,0.0,2.2,78,0.00,,,0.00,WUHU21623XXSP,2013-03-15 13:30:00,
2013-03-15 09:35:00,34.3,28.1,30.38,SSE,157,0.0,2.2,78,0.00,,,0.00,WUHU21623XXSP,2013-03-15 13:35:00,
2013-03-15 09:40:00,34.3,28.1,30.37,South,180,0.0,0.0,78,0.00,,,0.00,WUHU21623XXSP,2013-03-15 13:40:00,
2013-03-15 09:45:00,34.5,28.3,30.38,ESE,112,0.0,1.3,78,0.00,,,0.00,WUHU21623XXSP,2013-03-15 13:45:00,
2013-03-15 09:50:00,34.3,28.1,30.38,East,90,0.0,1.3,78,0.00,,,0.00,WUHU21623XXSP,2013-03-15 13:50:00,
2013-03-15 09:55:00,34.5,28.3,30.38,ESE,112,0.0,0.0,78,0.00,,,0.00,WUHU21623XXSP,2013-03-15 13:55:00,
2013-03-15 10:01:00,34.7,28.5,30.38,ESE,112,0.0,1.3,78,0.00,,,0.00,WUHU21623XXSP,2013-03-15 14:01:00,
2013-03-15 10:06:00,34.7,28.5,30.38,ESE,112,0.0,1.3,78,0.00,,,0.00,WUHU21623XXSP,2013-03-15 14:06:00,
2013-03-15 10:12:00,34.9,28.7,30.38,East,90,0.0,0.0,78,0.00,,,0.00,WUHU21623XXSP,2013-03-15 14:12:00,
2013-03-15 10:17:00,34.9,28.7,30.37,SE,135,0.0,1.6,78,0.00,,,0.00,WUHU21623XXSP,2013-03-15 14:17:00,
2013-03-15 10:22:00,34.9,28.7,30.37,East,90,4.0,4.0,78,0.00,,,0.00,WUHU21623XXSP,2013-03-15 14:22:00,
2013-03-15 10:27:00,35.2,29.0,30.37,SE,135,0.0,4.0,78,0.00,,,0.00,WUHU21623XXSP,2013-03-15 14:27:00,
2013-03-15 10:33:00,35.2,29.0,30.36,ESE,112,0.0,0.0,78,0.00,,,0.00,WUHU21623XXSP,2013-03-15 14:33:00,
2013-03-15 10:38:00,35.4,29.2,30.37,South,180,4.5,4.5,78,0.00,,,0.00,WUHU21623XXSP,2013-03-15 14:38:00,
2013-03-15 10:43:00,35.4,28.9,30.37,West,270,0.0,4.5,77,0.00,,,0.00,WUHU21623XXSP,2013-03-15 14:43:00,
2013-03-15 10:48:00,35.4,28.9,30.38,ESE,112,1.3,2.9,77,0.00,,,0.00,WUHU21623XXSP,2013-03-15 14:48:00,
2013-03-15 10:53:00,35.4,28.9,30.37,SSE,157,0.0,1.3,77,0.00,,,0.00,WUHU21623XXSP,2013-03-15 14:53:00,
2013-03-15 10:58:00,35.4,28.9,30.38,ENE,67,6.0,6.0,77,0.00,,,0.00,WUHU21623XXSP,2013-03-15 14:58:00,
2013-03-15 11:03:00,35.6,29.0,30.38,ENE,67,0.9,6.0,77,0.00,,,0.00,WUHU21623XXSP,2013-03-15 15:03:00,
2013-03-15 11:08:00,35.8,29.2,30.37,ESE,112,0.0,0.9,77,0.00,,,0.00,WUHU21623XXSP,2013-03-15 15:08:00,
2013-03-15 11:13:00,35.8,29.2,30.37,SSE,157,0.0,0.0,77,0.00,,,0.00,WUHU21623XXSP,2013-03-15 15:13:00,
2013-03-15 11:18:00,35.8,29.2,30.38,East,90,0.0,1.6,77,0.00,,,0.00,WUHU21623XXSP,2013-03-15 15:18:00,
2013-03-15 11:23:00,36.0,29.4,30.38,WSW,247,0.0,1.8,77,0.00,,,0.00,WUHU21623XXSP,2013-03-15 15:23:00,
2013-03-15 11:28:00,36.1,29.6,30.38,ESE,112,0.0,1.6,77,0.00,,,0.00,WUHU21623XXSP,2013-03-15 15:28:00,
2013-03-15 11:34:00,36.3,29.8,30.38,SE,135,0.0,1.6,77,0.00,,,0.00,WUHU21623XXSP,2013-03-15 15:34:00,
2013-03-15 11:39:00,36.3,29.4,30.37,NE,45,1.8,1.8,76,0.00,,,0.00,WUHU21623XXSP,2013-03-15 15:39:00,
2013-03-15 11:44:00,36.7,29.8,30.37,North,0,0.0,1.8,76,0.00,,,0.00,WUHU21623XXSP,2013-03-15 15:44:00,
2013-03-15 11:49:00,36.9,30.0,30.37,ESE,112,3.8,3.8,76,0.00,,,0.00,WUHU21623XXSP,2013-03-15 15:49:00,
2013-03-15 11:54:00,36.9,30.0,30.37,ENE,67,0.0,3.8,76,0.00,,,0.00,WUHU21623XXSP,2013-03-15 15:54:00,
2013-03-15 11:59:00,36.7,29.8,30.37,ENE,67,0.0,2.7,76,0.00,,,0.00,WUHU21623XXSP,2013-03-15 15:59:00,
2013-03-15 12:04:00,36.7,29.8,30.37,SSE,157,0.0,2.7,76,0.00,,,0.00,WUHU21623XXSP,2013-03-15 16:04:00,
2013-03-15 12:09:00,36.7,29.8,30.37,East,90,0.0,0.0,76,0.00,,,0.00,WUHU21623XXSP,2013-03-15 16:09:00,
2013-03-15 12:14:00,36.7,29.8,30.37,SSW,202,0.0,2.0,76,0.00,,,0.00,WUHU21623XXSP,2013-03-15 16:14:00,
2013-03-15 12:19:00,36.7,29.8,30.38,SSE,157,0.0,2.0,76,0.00,,,0.00,WUHU21623XXSP,2013-03-15 16:19:00,
2013-03-15 12:25:00,36.9,30.0,30.37,ESE,112,0.0,0.0,76,0.00,,,0.00,WUHU21623XXSP,2013-03-15 16:25:00,
2013-03-15 12:30:00,36.7,29.8,30.37,South,180,1.6,1.6,76,0.00,,,0.00,WUHU21623XXSP,2013-03-15 16:30:00,
2013-03-15 12:36:00,36.9,29.7,30.38,ESE,112,0.0,1.6,75,0.00,,,0.00,WUHU21623XXSP,2013-03-15 16:36:00,
2013-03-15 12:42:00,36.9,29.7,30.37,ESE,112,0.0,0.0,75,0.00,,,0.00,WUHU21623XXSP,2013-03-15 16:42:00,
2013-03-15 12:47:00,37.0,29.8,30.37,WNW,292,0.0,2.5,75,0.00,,,0.00,WUHU21623XXSP,2013-03-15 16:47:00,
2013-03-15 12:52:00,37.2,30.0,30.37,East,90,3.1,3.1,75,0.00,,,0.00,WUHU21623XXSP,2013-03-15 16:52:00,
2013-03-15 12:57:00,37.2,30.0,30.38,SE,135,0.0,3.1,75,0.00,,,0.00,WUHU21623XXSP,2013-03-15 16:57:00,
2013-03-15 13:02:00,37.6,30.4,30.37,East,90,0.0,1.1,75,0.00,,,0.00,WUHU21623XXSP,2013-03-15 17:02:00,
2013-03-15 13:08:00,38.3,31.0,30.37,NNE,22,0.0,1.1,75,0.00,,,0.00,WUHU21623XXSP,2013-03-15 17:08:00,
2013-03-15 13:13:00,38.8,31.2,30.37,East,90,0.9,0.9,74,0.00,,,0.00,WUHU21623XXSP,2013-03-15 17:13:00,
2013-03-15 13:18:00,39.0,31.2,30.37,SSE,157,0.0,0.9,74,0.00,,,0.00,WUHU21623XXSP,2013-03-15 17:18:00,
2013-03-15 13:23:00,39.0,31.0,30.37,South,180,0.0,1.6,73,0.00,,,0.00,WUHU21623XXSP,2013-03-15 17:23:00,
2013-03-15 13:28:00,39.0,31.0,30.36,SE,135,0.9,1.6,73,0.00,,,0.00,WUHU21623XXSP,2013-03-15 17:28:00,
2013-03-15 13:33:00,39.0,30.7,30.36,South,180,0.0,1.6,72,0.00,,,0.00,WUHU21623XXSP,2013-03-15 17:33:00,
2013-03-15 13:38:00,39.0,30.7,30.36,SSE,157,0.0,3.1,72,0.00,,,0.00,WUHU21623XXSP,2013-03-15 17:38:00,
2013-03-15 13:43:00,38.8,30.5,30.36,SSE,157,0.0,3.1,72,0.00,,,0.00,WUHU21623XXSP,2013-03-15 17:43:00,
2013-03-15 13:48:00,38.5,30.2,30.37,WSW,247,0.0,0.0,72,0.00,,,0.00,WUHU21623XXSP,2013-03-15 17:48:00,
2013-03-15 13:53:00,38.3,30.1,30.36,SSW,202,0.0,0.0,72,0.00,,,0.00,WUHU21623XXSP,2013-03-15 17:53:00,
2013-03-15 13:58:00,38.3,30.1,30.36,SE,135,0.0,0.0,72,0.00,,,0.00,WUHU21623XXSP,2013-03-15 17:58:00,
2013-03-15 14:03:00,38.1,29.9,30.37,SW,225,0.0,0.0,72,0.00,,,0.00,WUHU21623XXSP,2013-03-15 18:03:00,
2013-03-15 14:08:00,38.1,30.2,30.36,SSE,157,0.0,0.0,73,0.00,,,0.00,WUHU21623XXSP,2013-03-15 18:08:00,
2013-03-15 14:13:00,37.9,30.0,30.36,WSW,247,2.0,2.0,73,0.00,,,0.00,WUHU21623XXSP,2013-03-15 18:13:00,
2013-03-15 14:18:00,37.9,30.0,30.36,WSW,247,0.0,2.0,73,0.00,,,0.00,WUHU21623XXSP,2013-03-15 18:18:00,
2013-03-15 14:23:00,37.9,30.0,30.36,South,180,0.0,0.0,73,0.00,,,0.00,WUHU21623XXSP,2013-03-15 18:23:00,
2013-03-15 14:28:00,37.9,30.0,30.36,WSW,247,0.0,0.0,73,0.00,,,0.00,WUHU21623XXSP,2013-03-15 18:28:00,
2013-03-15 14:33:00,38.3,30.2,30.36,West,270,0.0,0.0,73,0.00,,,0.00,WUHU21623XXSP,2013-03-15 18:33:00,
2013-03-15 14:38:00,38.5,30.2,30.36,East,90,0.0,0.0,72,0.00,,,0.00,WUHU21623XXSP,2013-03-15 18:38:00,
2013-03-15 14:43:00,38.8,30.4,30.36,East,90,0.0,0.0,72,0.00,,,0.00,WUHU21623XXSP,2013-03-15 18:43:00,
2013-03-15 14:48:00,39.0,30.7,30.36,West,270,0.0,0.0,72,0.00,,,0.00,WUHU21623XXSP,2013-03-15 18:48:00,
2013-03-15 14:53:00,39.0,30.4,30.36,East,90,1.3,1.3,71,0.00,,,0.00,WUHU21623XXSP,2013-03-15 18:53:00,
2013-03-15 14:58:00,39.0,30.0,30.36,South,180,0.0,2.2,70,0.00,,,0.00,WUHU21623XXSP,2013-03-15 18:58:00,
2013-03-15 15:03:00,39.0,30.0,30.36,ENE,67,0.0,2.2,70,0.00,,,0.00,WUHU21623XXSP,2013-03-15 19:03:00,
2013-03-15 15:08:00,39.4,30.4,30.36,NNE,22,0.0,2.2,70,0.00,,,0.00,WUHU21623XXSP,2013-03-15 19:08:00,
2013-03-15 15:13:00,39.2,30.2,30.36,ENE,67,0.0,0.0,70,0.00,,,0.00,WUHU21623XXSP,2013-03-15 19:13:00,
2013-03-15 15:18:00,39.6,30.6,30.35,SSW,202,0.0,0.0,70,0.00,,,0.00,WUHU21623XXSP,2013-03-15 19:18:00,
2013-03-15 15:23:00,39.9,30.5,30.35,ESE,112,0.0,2.2,69,0.00,,,0.00,WUHU21623XXSP,2013-03-15 19:23:00,
2013-03-15 15:29:00,40.1,30.3,30.35,East,90,1.1,4.7,68,0.00,,,0.00,WUHU21623XXSP,2013-03-15 19:29:00,
2013-03-15 15:34:00,40.6,30.1,30.35,ESE,112,1.1,4.7,66,0.00,,,0.00,WUHU21623XXSP,2013-03-15 19:34:00,
2013-03-15 15:39:00,40.8,30.3,30.35,SSE,157,0.0,1.1,66,0.00,,,0.00,WUHU21623XXSP,2013-03-15 19:39:00,
2013-03-15 15:44:00,41.4,30.5,30.35,East,90,0.0,0.0,65,0.00,,,0.00,WUHU21623XXSP,2013-03-15 19:44:00,
2013-03-15 15:49:00,41.2,29.9,30.35,SE,135,1.6,1.6,64,0.00,,,0.00,WUHU21623XXSP,2013-03-15 19:49:00,
2013-03-15 15:54:00,40.8,29.6,30.35,SSW,202,0.0,1.6,64,0.00,,,0.00,WUHU21623XXSP,2013-03-15 19:54:00,
2013-03-15 16:00:00,40.8,29.6,30.35,SW,225,0.0,2.2,64,0.00,,,0.00,WUHU21623XXSP,2013-03-15 20:00:00,
2013-03-15 16:05:00,40.6,29.4,30.36,WSW,247,0.7,2.2,64,0.00,,,0.00,WUHU21623XXSP,2013-03-15 20:05:00,
2013-03-15 16:10:00,40.3,28.6,30.35,ESE,112,0.0,0.7,63,0.00,,,0.00,WUHU21623XXSP,2013-03-15 20:10:00,
2013-03-15 16:15:00,40.1,28.8,30.35,ESE,112,0.0,0.0,64,0.00,,,0.00,WUHU21623XXSP,2013-03-15 20:15:00,
2013-03-15 16:20:00,39.9,28.7,30.35,East,90,1.8,1.8,64,0.00,,,0.00,WUHU21623XXSP,2013-03-15 20:20:00,
2013-03-15 16:25:00,39.7,28.1,30.35,WSW,247,2.7,2.7,64,0.00,,,0.00,WUHU21623XXSP,2013-03-15 20:25:00,
2013-03-15 16:30:00,39.7,28.5,30.35,NE,45,0.0,2.7,64,0.00,,,0.00,WUHU21623XXSP,2013-03-15 20:30:00,
2013-03-15 16:35:00,39.7,28.5,30.35,East,90,0.0,2.7,64,0.00,,,0.00,WUHU21623XXSP,2013-03-15 20:35:00,
2013-03-15 16:40:00,39.9,28.7,30.35,East,90,0.0,0.0,64,0.00,,,0.00,WUHU21623XXSP,2013-03-15 20:40:00,
2013-03-15 16:45:00,39.9,28.7,30.35,East,90,1.6,1.6,64,0.00,,,0.00,WUHU21623XXSP,2013-03-15 20:45:00,
2013-03-15 16:50:00,39.9,28.3,30.35,WSW,247,0.0,2.5,63,0.00,,,0.00,WUHU21623XXSP,2013-03-15 20:50:00,
2013-03-15 16:55:00,40.3,28.3,30.35,NNE,22,0.0,2.5,62,0.00,,,0.00,WUHU21623XXSP,2013-03-15 20:55:00,
2013-03-15 17:00:00,40.6,28.6,30.36,ENE,67,0.0,0.0,62,0.00,,,0.00,WUHU21623XXSP,2013-03-15 21:00:00,
2013-03-15 17:05:00,40.8,28.8,30.35,ENE,67,0.0,0.0,62,0.00,,,0.00,WUHU21623XXSP,2013-03-15 21:05:00,
2013-03-15 17:10:00,41.4,28.8,30.36,SE,135,0.0,0.0,61,0.00,,,0.00,WUHU21623XXSP,2013-03-15 21:10:00,
2013-03-15 17:15:00,41.7,29.2,30.35,SE,135,0.0,2.9,61,0.00,,,0.00,WUHU21623XXSP,2013-03-15 21:15:00,
2013-03-15 17:20:00,42.1,29.2,30.35,South,180,0.0,2.9,60,0.00,,,0.00,WUHU21623XXSP,2013-03-15 21:20:00,
2013-03-15 17:25:00,42.1,28.7,30.35,East,90,0.0,2.5,59,0.00,,,0.00,WUHU21623XXSP,2013-03-15 21:25:00,
2013-03-15 17:30:00,42.1,28.7,30.35,East,90,4.0,4.0,59,0.00,,,0.00,WUHU21623XXSP,2013-03-15 21:30:00,
2013-03-15 17:35:00,42.4,28.6,30.35,East,90,0.9,4.0,58,0.00,,,0.00,WUHU21623XXSP,2013-03-15 21:35:00,
2013-03-15 17:40:00,42.6,28.4,30.35,East,90,2.0,2.0,57,0.00,,,0.00,WUHU21623XXSP,2013-03-15 21:40:00,
2013-03-15 17:45:00,42.6,28.4,30.35,East,90,0.0,2.0,57,0.00,,,0.00,WUHU21623XXSP,2013-03-15 21:45:00,
2013-03-15 17:50:00,42.6,27.9,30.35,West,270,0.0,0.0,56,0.00,,,0.00,WUHU21623XXSP,2013-03-15 21:50:00,
2013-03-15 17:55:00,42.4,27.3,30.35,WSW,247,0.0,0.7,55,0.00,,,0.00,WUHU21623XXSP,2013-03-15 21:55:00,
2013-03-15 18:00:00,42.1,27.0,30.35,WNW,292,0.0,0.7,55,0.00,,,0.00,WUHU21623XXSP,2013-03-15 22:00:00,
2013-03-15 18:05:00,41.7,26.7,30.35,West,270,0.0,0.0,55,0.00,,,0.00,WUHU21623XXSP,2013-03-15 22:05:00,
2013-03-15 18:10:00,41.5,26.5,30.36,SE,135,0.0,0.0,55,0.00,,,0.00,WUHU21623XXSP,2013-03-15 22:10:00,
2013-03-15 18:15:00,41.0,26.0,30.35,SW,225,0.0,0.0,55,0.00,,,0.00,WUHU21623XXSP,2013-03-15 22:15:00,
2013-03-15 18:20:00,40.8,25.8,30.35,East,90,0.0,0.0,55,0.00,,,0.00,WUHU21623XXSP,2013-03-15 22:20:00,
2013-03-15 18:25:00,40.3,24.8,30.36,South,180,0.0,0.0,54,0.00,,,0.00,WUHU21623XXSP,2013-03-15 22:25:00,
2013-03-15 18:31:00,39.9,24.9,30.36,ENE,67,0.0,0.0,55,0.00,,,0.00,WUHU21623XXSP,2013-03-15 22:31:00,
2013-03-15 18:36:00,39.6,24.6,30.35,WNW,292,0.0,0.0,55,0.00,,,0.00,WUHU21623XXSP,2013-03-15 22:36:00,
2013-03-15 18:41:00,39.2,24.3,30.35,South,180,0.0,0.0,55,0.00,,,0.00,WUHU21623XXSP,2013-03-15 22:41:00,
2013-03-15 18:46:00,39.0,24.5,30.36,South,180,0.0,0.0,56,0.00,,,0.00,WUHU21623XXSP,2013-03-15 22:46:00,
2013-03-15 18:51:00,38.5,24.0,30.35,West,270,0.0,0.0,56,0.00,,,0.00,WUHU21623XXSP,2013-03-15 22:51:00,
2013-03-15 18:56:00,38.3,23.9,30.35,ESE,112,0.0,0.0,56,0.00,,,0.00,WUHU21623XXSP,2013-03-15 22:56:00,
2013-03-15 19:01:00,38.1,23.3,30.35,South,180,0.0,0.0,55,0.00,,,0.00,WUHU21623XXSP,2013-03-15 23:01:00,
2013-03-15 19:06:00,37.8,23.0,30.35,West,270,0.0,0.0,55,0.00,,,0.00,WUHU21623XXSP,2013-03-15 23:06:00,
2013-03-15 19:11:00,37.6,22.8,30.35,SW,225,0.0,0.0,55,0.00,,,0.00,WUHU21623XXSP,2013-03-15 23:11:00,
2013-03-15 19:16:00,37.2,22.9,30.35,WSW,247,0.0,0.0,56,0.00,,,0.00,WUHU21623XXSP,2013-03-15 23:16:00,
2013-03-15 19:21:00,37.0,22.7,30.35,ESE,112,0.0,0.0,56,0.00,,,0.00,WUHU21623XXSP,2013-03-15 23:21:00,
2013-03-15 19:26:00,36.9,22.6,30.35,SW,225,0.0,0.0,56,0.00,,,0.00,WUHU21623XXSP,2013-03-15 23:26:00,
2013-03-15 19:32:00,36.5,22.3,30.36,South,180,0.0,0.0,56,0.00,,,0.00,WUHU21623XXSP,2013-03-15 23:32:00,
2013-03-15 19:37:00,36.3,22.5,30.36,SSE,157,0.0,0.0,57,0.00,,,0.00,WUHU21623XXSP,2013-03-15 23:37:00,
2013-03-15 19:42:00,36.0,22.2,30.36,SE,135,0.0,0.0,57,0.00,,,0.00,WUHU21623XXSP,2013-03-15 23:42:00,
2013-03-15 19:47:00,35.8,22.0,30.36,ESE,112,0.0,0.0,57,0.00,,,0.00,WUHU21623XXSP,2013-03-15 23:47:00,
2013-03-15 19:52:00,35.4,21.7,30.37,SW,225,0.0,0.0,57,0.00,,,0.00,WUHU21623XXSP,2013-03-15 23:52:00,
2013-03-15 19:57:00,35.2,22.0,30.37,SW,225,0.0,0.0,58,0.00,,,0.00,WUHU21623XXSP,2013-03-15 23:57:00,
2013-03-15 20:02:00,35.2,22.0,30.37,West,270,0.0,0.0,58,0.00,,,0.00,WUHU21623XXSP,2013-03-16 00:02:00,
2013-03-15 20:07:00,34.9,22.0,30.36,SW,225,0.0,0.0,59,0.00,,,0.00,WUHU21623XXSP,2013-03-16 00:07:00,
2013-03-15 20:12:00,34.7,21.8,30.36,East,90,0.0,0.0,59,0.00,,,0.00,WUHU21623XXSP,2013-03-16 00:12:00,
2013-03-15 20:17:00,34.7,21.8,30.37,South,180,0.0,0.0,59,0.00,,,0.00,WUHU21623XXSP,2013-03-16 00:17:00,
2013-03-15 20:22:00,34.5,21.7,30.37,SE,135,0.0,0.0,59,0.00,,,0.00,WUHU21623XXSP,2013-03-16 00:22:00,
2013-03-15 20:27:00,34.3,21.9,30.36,SE,135,0.0,0.0,60,0.00,,,0.00,WUHU21623XXSP,2013-03-16 00:27:00,
2013-03-15 20:32:00,34.3,21.9,30.37,SSW,202,0.0,0.0,60,0.00,,,0.00,WUHU21623XXSP,2013-03-16 00:32:00,
2013-03-15 20:37:00,34.2,21.7,30.37,WNW,292,0.0,0.0,60,0.00,,,0.00,WUHU21623XXSP,2013-03-16 00:37:00,
2013-03-15 20:42:00,34.2,22.1,30.37,West,270,0.0,0.0,61,0.00,,,0.00,WUHU21623XXSP,2013-03-16 00:42:00,
2013-03-15 20:47:00,34.0,21.9,30.37,SSE,157,0.0,0.0,61,0.00,,,0.00,WUHU21623XXSP,2013-03-16 00:47:00,
2013-03-15 20:52:00,33.8,21.7,30.37,WSW,247,0.0,0.0,61,0.00,,,0.00,WUHU21623XXSP,2013-03-16 00:52:00,
2013-03-15 20:57:00,33.8,22.1,30.37,WSW,247,0.0,0.0,62,0.00,,,0.00,WUHU21623XXSP,2013-03-16 00:57:00,
2013-03-15 21:02:00,33.6,22.3,30.38,SW,225,0.0,0.0,63,0.00,,,0.00,WUHU21623XXSP,2013-03-16 01:02:00,
2013-03-15 21:08:00,33.6,22.7,30.38,SW,225,0.0,0.0,64,0.00,,,0.00,WUHU21623XXSP,2013-03-16 01:08:00,
2013-03-15 21:13:00,33.4,23.2,30.37,SW,225,0.0,0.0,66,0.00,,,0.00,WUHU21623XXSP,2013-03-16 01:13:00,
2013-03-15 21:18:00,33.3,23.8,30.38,WSW,247,0.0,0.0,68,0.00,,,0.00,WUHU21623XXSP,2013-03-16 01:18:00,
2013-03-15 21:23:00,33.1,24.0,30.38,WSW,247,2.9,2.9,69,0.00,,,0.00,WUHU21623XXSP,2013-03-16 01:23:00,
2013-03-15 21:28:00,32.9,24.2,30.38,WSW,247,0.7,2.9,70,0.00,,,0.00,WUHU21623XXSP,2013-03-16 01:28:00,
2013-03-15 21:33:00,32.5,24.2,30.38,WSW,247,0.0,0.7,71,0.00,,,0.00,WUHU21623XXSP,2013-03-16 01:33:00,
2013-03-15 21:38:00,32.4,24.3,30.38,WSW,247,0.0,0.0,72,0.00,,,0.00,WUHU21623XXSP,2013-03-16 01:38:00,
2013-03-15 21:43:00,32.2,24.2,30.39,WSW,247,2.5,2.5,72,0.00,,,0.00,WUHU21623XXSP,2013-03-16 01:43:00,
2013-03-15 21:48:00,32.0,24.3,30.39,SW,225,0.0,2.5,73,0.00,,,0.00,WUHU21623XXSP,2013-03-16 01:48:00,
2013-03-15 21:53:00,31.8,24.5,30.40,WSW,247,2.7,2.7,74,0.00,,,0.00,WUHU21623XXSP,2013-03-16 01:53:00,
2013-03-15 21:58:00,31.8,24.5,30.40,WSW,247,1.3,2.7,74,0.00,,,0.00,WUHU21623XXSP,2013-03-16 01:58:00,
2013-03-15 22:03:00,31.8,24.8,30.40,WSW,247,0.0,2.7,75,0.00,,,0.00,WUHU21623XXSP,2013-03-16 02:03:00,
2013-03-15 22:08:00,31.6,24.6,30.40,WSW,247,1.3,1.3,75,0.00,,,0.00,WUHU21623XXSP,2013-03-16 02:08:00,
2013-03-15 22:13:00,31.6,24.6,30.39,WSW,247,1.3,1.3,75,0.00,,,0.00,WUHU21623XXSP,2013-03-16 02:13:00,
2013-03-15 22:18:00,31.6,24.9,30.39,SW,225,0.0,2.7,76,0.00,,,0.00,WUHU21623XXSP,2013-03-16 02:18:00,
2013-03-15 22:23:00,31.6,24.9,30.39,WSW,247,0.0,2.7,76,0.00,,,0.00,WUHU21623XXSP,2013-03-16 02:23:00,
2013-03-15 22:28:00,31.3,24.6,30.39,SSW,202,0.0,0.0,76,0.00,,,0.00,WUHU21623XXSP,2013-03-16 02:28:00,
2013-03-15 22:33:00,31.3,24.6,30.39,SW,225,0.0,0.0,77,0.00,,,0.00,WUHU21623XXSP,2013-03-16 02:33:00,
2013-03-15 22:38:00,31.3,24.9,30.38,WSW,247,0.0,0.0,77,0.00,,,0.00,WUHU21623XXSP,2013-03-16 02:38:00,
2013-03-15 22:43:00,31.3,24.9,30.38,WSW,247,0.0,0.0,77,0.00,,,0.00,WUHU21623XXSP,2013-03-16 02:43:00,
2013-03-15 22:48:00,31.3,24.9,30.38,WSW,247,0.0,0.0,77,0.00,,,0.00,WUHU21623XXSP,2013-03-16 02:48:00,
2013-03-15 22:53:00,31.3,24.9,30.38,WSW,247,0.0,0.0,77,0.00,,,0.00,WUHU21623XXSP,2013-03-16 02:53:00,
2013-03-15 22:58:00,31.1,24.7,30.39,SW,225,0.0,0.0,77,0.00,,,0.00,WUHU21623XXSP,2013-03-16 02:58:00,
2013-03-15 23:03:00,31.1,24.4,30.39,SW,225,0.0,0.0,76,0.00,,,0.00,WUHU21623XXSP,2013-03-16 03:03:00,
2013-03-15 23:08:00,31.1,24.7,30.39,WSW,247,0.0,0.0,77,0.00,,,0.00,WUHU21623XXSP,2013-03-16 03:08:00,
2013-03-15 23:13:00,30.9,24.2,30.39,East,90,0.0,0.0,76,0.00,,,0.00,WUHU21623XXSP,2013-03-16 03:13:00,
2013-03-15 23:18:00,30.9,24.2,30.38,SW,225,0.0,0.0,76,0.00,,,0.00,WUHU21623XXSP,2013-03-16 03:18:00,
2013-03-15 23:24:00,30.9,24.2,30.38,WSW,247,0.0,0.0,76,0.00,,,0.00,WUHU21623XXSP,2013-03-16 03:24:00,
2013-03-15 23:29:00,30.9,24.5,30.38,SSW,202,0.0,0.0,77,0.00,,,0.00,WUHU21623XXSP,2013-03-16 03:29:00,
2013-03-15 23:34:00,30.7,24.4,30.38,SW,225,0.0,0.0,77,0.00,,,0.00,WUHU21623XXSP,2013-03-16 03:34:00,
2013-03-15 23:39:00,30.7,24.4,30.38,WSW,247,0.9,0.9,77,0.00,,,0.00,WUHU21623XXSP,2013-03-16 03:39:00,
2013-03-15 23:44:00,30.7,24.4,30.38,WSW,247,2.2,2.2,77,0.00,,,0.00,WUHU21623XXSP,2013-03-16 03:44:00,
2013-03-15 23:49:00,30.7,24.4,30.38,WSW,247,0.0,2.2,77,0.00,,,0.00,WUHU21623XXSP,2013-03-16 03:49:00,
2013-03-15 23:54:00,30.7,24.0,30.38,WSW,247,0.0,0.0,76,0.00,,,0.00,WUHU21623XXSP,2013-03-16 03:54:00,
2013-03-15 23:59:00,30.7,24.4,30.38,East,90,0.0,1.6,77,0.00,,,0.00,WUHU21623XXSP,2013-03-16 03:59:00,